createdAt,value
2023-01-21T00:02:48.433Z,2.39
2023-01-21T00:07:52.885Z,2.45
2023-01-21T00:12:55.936Z,2.46
2023-01-21T00:17:59.031Z,2.48
2023-01-21T00:23:03.883Z,2.44
2023-01-21T00:28:07.019Z,2.46
2023-01-21T00:33:10.150Z,2.49
2023-01-21T00:38:14.666Z,2.46
2023-01-21T00:43:17.904Z,2.48
2023-01-21T00:48:21.634Z,2.47
2023-01-21T00:53:26.398Z,2.43
2023-01-21T00:58:29.777Z,2.43
2023-01-21T01:03:33.898Z,2.50
2023-01-21T01:08:38.518Z,2.45
2023-01-21T01:13:42.112Z,2.39
2023-01-21T01:18:45.232Z,2.37
2023-01-21T01:23:52.184Z,2.35
2023-01-21T01:28:55.389Z,2.38
2023-01-21T01:33:58.877Z,2.37
2023-01-21T01:39:04.035Z,2.36
2023-01-21T01:44:45.523Z,2.40
2023-01-21T01:49:49.897Z,2.32
2023-01-21T01:54:58.619Z,2.31
2023-01-21T02:00:04.224Z,2.27
2023-01-21T02:05:10.955Z,2.19
2023-01-21T02:10:16.577Z,2.11
2023-01-21T02:15:21.569Z,2.14
2023-01-21T02:21:06.672Z,2.12
2023-01-21T02:26:38.855Z,2.06
2023-01-21T02:32:10.854Z,2.11
2023-01-21T02:37:24.061Z,2.05
2023-01-21T02:42:34.291Z,2.06
2023-01-21T02:47:46.279Z,2.02
2023-01-21T02:52:57.958Z,2.05
2023-01-21T02:58:03.953Z,2.04
2023-01-21T03:03:46.864Z,2.06
2023-01-21T03:08:55.695Z,1.97
2023-01-21T03:14:23.230Z,1.92
2023-01-21T03:19:34.938Z,1.93
2023-01-21T03:24:41.662Z,1.89
2023-01-21T03:29:47.791Z,1.88
2023-01-21T03:34:56.242Z,1.84
2023-01-21T03:40:12.462Z,1.82
2023-01-21T03:45:15.865Z,1.78
2023-01-21T03:50:23.823Z,1.66
2023-01-21T03:55:28.389Z,1.66
2023-01-21T04:00:31.737Z,1.61
2023-01-21T04:05:36.104Z,1.50
2023-01-21T04:10:41.039Z,1.54
2023-01-21T04:15:44.335Z,1.54
2023-01-21T04:20:47.804Z,1.52
2023-01-21T04:25:53.063Z,1.52
2023-01-21T04:30:56.916Z,1.54
2023-01-21T04:36:01.046Z,1.55
2023-01-21T04:41:05.839Z,1.50
2023-01-21T04:46:08.931Z,1.55
2023-01-21T04:51:12.137Z,1.51
2023-01-21T04:56:16.916Z,1.52
2023-01-21T05:01:20.075Z,1.51
2023-01-21T05:06:23.346Z,1.46
2023-01-21T05:11:27.890Z,1.50
2023-01-21T05:16:31.308Z,1.48
2023-01-21T05:21:34.744Z,1.48
2023-01-21T05:26:39.551Z,1.43
2023-01-21T05:31:43.603Z,1.47
2023-01-21T05:36:46.915Z,1.46
2023-01-21T05:41:51.611Z,1.51
2023-01-21T05:46:54.821Z,1.50
2023-01-21T05:51:58.165Z,1.50
2023-01-21T05:57:02.813Z,1.52
2023-01-21T06:02:07.043Z,1.51
2023-01-21T06:07:11.378Z,1.56
2023-01-21T06:12:15.814Z,1.57
2023-01-21T06:17:19.043Z,1.60
2023-01-21T06:22:22.377Z,1.60
2023-01-21T06:27:26.854Z,1.63
2023-01-21T06:32:30.138Z,1.65
2023-01-21T06:37:33.234Z,1.69
2023-01-21T06:42:37.873Z,1.70
2023-01-21T06:47:42.789Z,1.72
2023-01-21T06:52:47.859Z,1.76
2023-01-21T06:57:52.394Z,1.77
2023-01-21T07:02:57.959Z,1.83
2023-01-21T07:08:01.747Z,1.83
2023-01-21T07:13:06.636Z,1.83
2023-01-21T07:18:09.875Z,1.86
2023-01-21T07:23:13.100Z,1.89
2023-01-21T07:28:18.156Z,1.95
2023-01-21T07:33:21.447Z,2.06
2023-01-21T07:38:24.864Z,2.09
2023-01-21T07:43:29.400Z,2.14
2023-01-21T07:48:32.523Z,2.19
2023-01-21T07:53:35.939Z,2.25
2023-01-21T07:58:41.091Z,2.26
2023-01-21T08:03:44.463Z,2.22
2023-01-21T08:08:47.700Z,2.26
2023-01-21T08:13:55.852Z,2.32
2023-01-21T08:18:59.263Z,2.30
2023-01-21T08:24:03.694Z,2.27
2023-01-21T08:29:09.017Z,2.30
2023-01-21T08:34:12.374Z,2.27
2023-01-21T08:39:16.745Z,2.28
2023-01-21T08:44:21.240Z,2.29
2023-01-21T08:49:24.440Z,2.31
2023-01-21T08:54:27.971Z,2.32
2023-01-21T08:59:32.647Z,2.35
2023-01-21T09:04:35.909Z,2.39
2023-01-21T09:09:39.239Z,2.45
2023-01-21T09:14:43.986Z,2.52
2023-01-21T09:19:47.160Z,2.52
2023-01-21T09:24:50.402Z,2.55
2023-01-21T09:29:55.628Z,2.60
2023-01-21T09:34:58.738Z,2.65
2023-01-21T09:40:02.159Z,2.71
2023-01-21T09:45:07.847Z,2.74
2023-01-21T09:50:16.486Z,2.78
2023-01-21T09:55:21.487Z,2.81
2023-01-21T10:00:34.968Z,2.93
2023-01-21T10:05:54.579Z,2.92
2023-01-21T10:11:08.828Z,2.99
2023-01-21T10:16:23.163Z,3.04
2023-01-21T10:21:34.401Z,3.07
2023-01-21T10:26:38.146Z,3.12
2023-01-21T10:31:46.797Z,3.12
2023-01-21T10:37:07.157Z,3.12
2023-01-21T10:42:51.394Z,3.23
2023-01-21T10:48:05.620Z,3.26
2023-01-21T10:53:20.378Z,3.26
2023-01-21T10:58:31.662Z,3.34
2023-01-21T11:03:41.632Z,3.40
2023-01-21T11:08:48.512Z,3.42
2023-01-21T11:13:51.860Z,3.44
2023-01-21T11:19:01.642Z,3.53
2023-01-21T11:24:20.608Z,3.57
2023-01-21T11:29:25.691Z,3.67
2023-01-21T11:34:31.191Z,3.65
2023-01-21T11:39:38.311Z,3.74
2023-01-21T11:44:53.193Z,3.74
2023-01-21T11:50:04.310Z,3.77
2023-01-21T11:55:19.942Z,3.82
2023-01-21T12:00:27.146Z,3.97
2023-01-21T12:05:34.735Z,4.11
2023-01-21T12:10:45.571Z,4.18
2023-01-21T12:16:18.003Z,4.30
2023-01-21T12:21:36.360Z,4.40
2023-01-21T12:26:45.519Z,4.33
2023-01-21T12:31:54.636Z,4.27
2023-01-21T12:37:04.734Z,4.23
2023-01-21T12:42:11.810Z,4.25
2023-01-21T12:47:30.243Z,4.28
2023-01-21T12:52:43.113Z,4.31
2023-01-21T12:57:53.966Z,4.38
2023-01-21T13:03:11.379Z,4.44
2023-01-21T13:08:32.733Z,4.49
2023-01-21T13:13:41.827Z,4.57
2023-01-21T13:18:51.662Z,4.61
2023-01-21T13:24:09.820Z,4.63
2023-01-21T13:29:20.028Z,4.63
2023-01-21T13:34:30.927Z,4.68
2023-01-21T13:39:45.498Z,4.66
2023-01-21T13:45:08.248Z,4.63
2023-01-21T13:50:25.393Z,4.57
2023-01-21T13:55:41.319Z,4.47
2023-01-21T14:00:54.203Z,4.41
2023-01-21T14:06:05.715Z,4.41
2023-01-21T14:11:18.677Z,4.41
2023-01-21T14:16:57.647Z,4.40
2023-01-21T14:22:25.052Z,4.35
2023-01-21T14:27:39.120Z,4.34
2023-01-21T14:32:47.232Z,4.29
2023-01-21T14:37:59.022Z,4.28
2023-01-21T14:43:06.754Z,4.20
2023-01-21T14:48:31.942Z,4.18
2023-01-21T14:53:44.719Z,4.15
2023-01-21T14:58:51.409Z,4.12
2023-01-21T15:03:54.780Z,4.11
2023-01-21T15:09:00.546Z,4.07
2023-01-21T15:14:14.408Z,4.05
2023-01-21T15:19:29.865Z,4.08
2023-01-21T15:24:40.200Z,4.10
2023-01-21T15:29:47.595Z,4.10
2023-01-21T15:34:55.300Z,4.09
2023-01-21T15:40:00.947Z,4.04
2023-01-21T15:45:24.828Z,4.07
2023-01-21T15:50:32.286Z,4.03
2023-01-21T15:56:03.281Z,3.94
2023-01-21T16:01:15.779Z,3.86
2023-01-21T16:06:24.015Z,3.76
2023-01-21T16:11:42.232Z,3.68
2023-01-21T16:16:59.567Z,3.59
2023-01-21T16:22:16.871Z,3.56
2023-01-21T16:27:22.411Z,3.50
2023-01-21T16:32:27.324Z,3.45
2023-01-21T16:37:31.924Z,3.46
2023-01-21T16:42:37.576Z,3.41
2023-01-21T16:47:42.351Z,3.38
2023-01-21T16:52:46.200Z,3.34
2023-01-21T16:57:50.849Z,3.32
2023-01-21T17:02:55.711Z,3.31
2023-01-21T17:08:01.866Z,3.30
2023-01-21T17:13:12.275Z,3.25
2023-01-21T17:18:22.875Z,3.25
2023-01-21T17:23:28.595Z,3.18
2023-01-21T17:28:34.260Z,3.12
2023-01-21T17:33:38.960Z,3.10
2023-01-21T17:38:47.624Z,3.04
2023-01-21T17:43:53.425Z,3.02
2023-01-21T17:49:06.142Z,3.02
2023-01-21T17:54:20.768Z,3.04
2023-01-21T17:59:39.290Z,3.03
2023-01-21T18:04:44.625Z,3.01
2023-01-21T18:09:48.012Z,2.98
2023-01-21T18:14:51.113Z,3.03
2023-01-21T18:19:57.795Z,3.02
2023-01-21T18:25:02.992Z,3.00
2023-01-21T18:30:14.210Z,2.99
2023-01-21T18:35:20.685Z,2.98
2023-01-21T18:40:25.965Z,3.02
2023-01-21T18:45:30.110Z,3.02
2023-01-21T18:50:34.830Z,3.03
2023-01-21T18:55:38.078Z,3.02
2023-01-21T19:00:42.044Z,2.99
2023-01-21T19:05:48.376Z,3.00
2023-01-21T19:10:51.753Z,3.02
2023-01-21T19:15:55.052Z,3.03
2023-01-21T19:20:59.581Z,3.01
2023-01-21T19:26:05.631Z,3.05
2023-01-21T19:31:08.926Z,3.04
2023-01-21T19:36:17.609Z,3.03
2023-01-21T19:41:21.182Z,2.99
2023-01-21T19:46:28.928Z,2.97
2023-01-21T19:51:34.305Z,3.01
2023-01-21T19:56:38.109Z,3.02
2023-01-21T20:01:42.860Z,3.01
2023-01-21T20:06:49.123Z,3.02
2023-01-21T20:11:52.446Z,3.04
2023-01-21T20:16:58.278Z,3.03
2023-01-21T20:22:03.223Z,3.01
2023-01-21T20:27:09.362Z,3.05
2023-01-21T20:32:21.920Z,3.04
2023-01-21T20:37:34.102Z,3.12
2023-01-21T20:42:37.555Z,3.14
2023-01-21T20:47:49.722Z,3.14
2023-01-21T20:52:56.596Z,3.18
2023-01-21T20:58:01.051Z,3.16
2023-01-21T21:03:04.627Z,3.16
2023-01-21T21:08:16.219Z,3.17
2023-01-21T21:13:19.928Z,3.19
2023-01-21T21:18:23.367Z,3.17
2023-01-21T21:23:28.279Z,3.22
2023-01-21T21:28:31.466Z,3.21
2023-01-21T21:33:34.504Z,3.18
2023-01-21T21:38:39.658Z,3.20
2023-01-21T21:43:43.698Z,3.20
2023-01-21T21:48:46.893Z,3.20
2023-01-21T21:53:51.839Z,3.19
2023-01-21T21:58:56.205Z,3.21
2023-01-21T22:04:01.644Z,3.20
2023-01-21T22:09:06.417Z,3.22
2023-01-21T22:14:15.780Z,3.20
2023-01-21T22:19:18.979Z,3.22
2023-01-21T22:24:28.103Z,3.22
2023-01-21T22:29:31.855Z,3.21
2023-01-21T22:34:35.276Z,3.22
2023-01-21T22:39:39.747Z,3.25
2023-01-21T22:44:42.797Z,3.24
2023-01-21T22:49:48.183Z,3.27
2023-01-21T22:54:52.732Z,3.26
2023-01-21T22:59:56.044Z,3.30
2023-01-21T23:04:59.713Z,3.26
2023-01-21T23:10:04.413Z,3.25
2023-01-21T23:15:10.660Z,3.24
2023-01-21T23:20:14.533Z,3.24
2023-01-21T23:25:23.469Z,3.28
2023-01-21T23:30:27.038Z,3.33
2023-01-21T23:35:34.202Z,3.32
2023-01-21T23:40:39.132Z,3.34
2023-01-21T23:45:42.286Z,3.35
2023-01-21T23:50:45.596Z,3.35
2023-01-21T23:55:50.040Z,3.33
